sensor_id;sensor_type;location;lat;lon;timestamp;temperature;humidity
28835;DHT22;15969;51.536;11.884;2022-12-10T00:02:00;1.90;99.90
28835;DHT22;15969;51.536;11.884;2022-12-10T00:04:26;1.90;99.90
28835;DHT22;15969;51.536;11.884;2022-12-10T00:06:51;2.10;99.90
28835;DHT22;15969;51.536;11.884;2022-12-10T00:09:19;2.10;99.90
28835;DHT22;15969;51.536;11.884;2022-12-10T00:11:45;2.10;99.90
28835;DHT22;15969;51.536;11.884;2022-12-10T00:14:12;2.00;99.90
28835;DHT22;15969;51.536;11.884;2022-12-10T00:16:38;2.00;99.90
28835;DHT22;15969;51.536;11.884;2022-12-10T00:19:04;2.10;99.90
28835;DHT22;15969;51.536;11.884;2022-12-10T00:21:32;1.90;99.90
28835;DHT22;15969;51.536;11.884;2022-12-10T00:23:59;2.00;99.90
28835;DHT22;15969;51.536;11.884;2022-12-10T00:26:28;2.10;99.90
28835;DHT22;15969;51.536;11.884;2022-12-10T00:28:55;2.10;99.90
28835;DHT22;15969;51.536;11.884;2022-12-10T00:31:27;2.10;99.90
28835;DHT22;15969;51.536;11.884;2022-12-10T00:33:55;2.20;99.90
28835;DHT22;15969;51.536;11.884;2022-12-10T00:36:29;2.10;99.90
28835;DHT22;15969;51.536;11.884;2022-12-10T00:38:57;2.20;99.90
28835;DHT22;15969;51.536;11.884;2022-12-10T00:41:24;2.20;99.90
28835;DHT22;15969;51.536;11.884;2022-12-10T00:43:50;2.20;99.90
28835;DHT22;15969;51.536;11.884;2022-12-10T00:46:17;2.20;99.90
28835;DHT22;15969;51.536;11.884;2022-12-10T00:48:43;2.20;99.90
28835;DHT22;15969;51.536;11.884;2022-12-10T00:51:16;2.20;99.90
28835;DHT22;15969;51.536;11.884;2022-12-10T00:53:43;2.20;99.90
28835;DHT22;15969;51.536;11.884;2022-12-10T00:56:10;2.20;99.90
28835;DHT22;15969;51.536;11.884;2022-12-10T00:58:37;2.20;99.90
28835;DHT22;15969;51.536;11.884;2022-12-10T01:04:00;2.30;99.90
28835;DHT22;15969;51.536;11.884;2022-12-10T01:06:35;2.20;99.90
28835;DHT22;15969;51.536;11.884;2022-12-10T01:09:07;2.20;99.90
28835;DHT22;15969;51.536;11.884;2022-12-10T01:11:36;2.30;99.90
28835;DHT22;15969;51.536;11.884;2022-12-10T01:14:03;2.30;99.90
28835;DHT22;15969;51.536;11.884;2022-12-10T01:16:30;2.30;99.90
28835;DHT22;15969;51.536;11.884;2022-12-10T01:18:57;2.30;99.90
28835;DHT22;15969;51.536;11.884;2022-12-10T01:21:25;2.30;99.90
28835;DHT22;15969;51.536;11.884;2022-12-10T01:23:52;2.30;99.90
28835;DHT22;15969;51.536;11.884;2022-12-10T01:26:21;2.30;99.90
28835;DHT22;15969;51.536;11.884;2022-12-10T01:28:49;2.30;99.90
28835;DHT22;15969;51.536;11.884;2022-12-10T01:31:19;2.20;99.90
28835;DHT22;15969;51.536;11.884;2022-12-10T01:33:47;2.20;99.90
28835;DHT22;15969;51.536;11.884;2022-12-10T01:36:15;2.30;99.90
28835;DHT22;15969;51.536;11.884;2022-12-10T01:38:43;2.30;99.90
28835;DHT22;15969;51.536;11.884;2022-12-10T01:41:14;2.30;99.90
28835;DHT22;15969;51.536;11.884;2022-12-10T01:46:34;2.30;99.90
28835;DHT22;15969;51.536;11.884;2022-12-10T01:49:04;2.20;99.90
28835;DHT22;15969;51.536;11.884;2022-12-10T01:51:32;2.10;99.90
28835;DHT22;15969;51.536;11.884;2022-12-10T01:54:01;2.20;99.90
28835;DHT22;15969;51.536;11.884;2022-12-10T01:56:28;2.10;99.90
28835;DHT22;15969;51.536;11.884;2022-12-10T01:58:56;2.20;99.90
28835;DHT22;15969;51.536;11.884;2022-12-10T02:01:32;2.20;99.90
28835;DHT22;15969;51.536;11.884;2022-12-10T02:04:49;2.20;99.90
28835;DHT22;15969;51.536;11.884;2022-12-10T02:10:01;2.20;99.90
28835;DHT22;15969;51.536;11.884;2022-12-10T02:13:08;2.20;99.90
28835;DHT22;15969;51.536;11.884;2022-12-10T02:15:49;2.10;99.90
28835;DHT22;15969;51.536;11.884;2022-12-10T02:18:42;2.00;99.90
28835;DHT22;15969;51.536;11.884;2022-12-10T02:21:32;1.70;99.90
28835;DHT22;15969;51.536;11.884;2022-12-10T02:24:03;1.60;99.90
28835;DHT22;15969;51.536;11.884;2022-12-10T02:27:01;1.50;99.90
28835;DHT22;15969;51.536;11.884;2022-12-10T02:29:30;1.50;99.90
28835;DHT22;15969;51.536;11.884;2022-12-10T02:32:03;1.50;99.90
28835;DHT22;15969;51.536;11.884;2022-12-10T02:34:45;1.50;99.90
28835;DHT22;15969;51.536;11.884;2022-12-10T02:37:30;1.40;99.90
28835;DHT22;15969;51.536;11.884;2022-12-10T02:40:02;1.50;99.90
28835;DHT22;15969;51.536;11.884;2022-12-10T02:42:34;1.50;99.90
28835;DHT22;15969;51.536;11.884;2022-12-10T02:45:03;1.40;99.90
28835;DHT22;15969;51.536;11.884;2022-12-10T02:47:31;1.50;99.90
28835;DHT22;15969;51.536;11.884;2022-12-10T02:49:58;1.60;99.90
28835;DHT22;15969;51.536;11.884;2022-12-10T02:52:24;1.70;99.90
28835;DHT22;15969;51.536;11.884;2022-12-10T02:54:51;1.70;99.90
28835;DHT22;15969;51.536;11.884;2022-12-10T03:00:45;1.80;99.90
28835;DHT22;15969;51.536;11.884;2022-12-10T03:03:28;1.90;99.90
28835;DHT22;15969;51.536;11.884;2022-12-10T03:06:22;1.90;99.90
28835;DHT22;15969;51.536;11.884;2022-12-10T03:09:01;1.90;99.90
28835;DHT22;15969;51.536;11.884;2022-12-10T03:11:29;1.90;99.90
28835;DHT22;15969;51.536;11.884;2022-12-10T03:16:55;1.90;99.90
28835;DHT22;15969;51.536;11.884;2022-12-10T03:19:36;1.90;99.90
28835;DHT22;15969;51.536;11.884;2022-12-10T03:22:06;1.90;99.90
28835;DHT22;15969;51.536;11.884;2022-12-10T03:24:34;1.90;99.90
28835;DHT22;15969;51.536;11.884;2022-12-10T03:27:03;1.90;99.90
28835;DHT22;15969;51.536;11.884;2022-12-10T03:29:39;1.70;99.90
28835;DHT22;15969;51.536;11.884;2022-12-10T03:32:08;1.80;99.90
28835;DHT22;15969;51.536;11.884;2022-12-10T03:34:34;1.80;99.90
28835;DHT22;15969;51.536;11.884;2022-12-10T03:37:01;1.70;99.90
28835;DHT22;15969;51.536;11.884;2022-12-10T03:39:28;1.40;99.90
28835;DHT22;15969;51.536;11.884;2022-12-10T03:41:54;1.50;99.90
28835;DHT22;15969;51.536;11.884;2022-12-10T03:44:31;1.30;99.90
28835;DHT22;15969;51.536;11.884;2022-12-10T03:46:58;1.30;99.90
28835;DHT22;15969;51.536;11.884;2022-12-10T03:49:25;1.20;99.90
28835;DHT22;15969;51.536;11.884;2022-12-10T03:51:50;1.20;99.90
28835;DHT22;15969;51.536;11.884;2022-12-10T03:54:16;1.20;99.90
28835;DHT22;15969;51.536;11.884;2022-12-10T03:56:42;1.40;99.90
28835;DHT22;15969;51.536;11.884;2022-12-10T03:59:08;1.20;99.90
28835;DHT22;15969;51.536;11.884;2022-12-10T04:01:33;1.40;99.90
28835;DHT22;15969;51.536;11.884;2022-12-10T04:03:59;1.60;99.90
28835;DHT22;15969;51.536;11.884;2022-12-10T04:06:25;1.40;99.90
28835;DHT22;15969;51.536;11.884;2022-12-10T04:08:52;1.20;99.90
28835;DHT22;15969;51.536;11.884;2022-12-10T04:11:18;1.00;99.90
28835;DHT22;15969;51.536;11.884;2022-12-10T04:13:44;1.10;99.90
28835;DHT22;15969;51.536;11.884;2022-12-10T04:16:31;1.00;99.90
28835;DHT22;15969;51.536;11.884;2022-12-10T04:19:04;1.10;99.90
28835;DHT22;15969;51.536;11.884;2022-12-10T04:21:33;1.10;99.90
28835;DHT22;15969;51.536;11.884;2022-12-10T04:24:21;1.10;99.90
28835;DHT22;15969;51.536;11.884;2022-12-10T04:27:12;1.20;99.90
28835;DHT22;15969;51.536;11.884;2022-12-10T04:29:52;1.10;99.90
28835;DHT22;15969;51.536;11.884;2022-12-10T04:32:19;1.10;99.90
28835;DHT22;15969;51.536;11.884;2022-12-10T04:34:45;1.00;99.90
28835;DHT22;15969;51.536;11.884;2022-12-10T04:37:12;1.00;99.90
28835;DHT22;15969;51.536;11.884;2022-12-10T04:39:38;0.90;99.90
28835;DHT22;15969;51.536;11.884;2022-12-10T04:42:05;1.00;99.90
28835;DHT22;15969;51.536;11.884;2022-12-10T04:44:32;0.90;99.90
28835;DHT22;15969;51.536;11.884;2022-12-10T04:46:57;0.90;99.90
28835;DHT22;15969;51.536;11.884;2022-12-10T04:49:23;0.90;99.90
28835;DHT22;15969;51.536;11.884;2022-12-10T04:51:50;1.00;99.90
28835;DHT22;15969;51.536;11.884;2022-12-10T04:54:16;1.00;99.90
28835;DHT22;15969;51.536;11.884;2022-12-10T04:56:42;1.00;99.90
28835;DHT22;15969;51.536;11.884;2022-12-10T04:59:09;1.00;99.90
28835;DHT22;15969;51.536;11.884;2022-12-10T05:01:35;1.00;99.90
28835;DHT22;15969;51.536;11.884;2022-12-10T05:04:03;1.00;99.90
28835;DHT22;15969;51.536;11.884;2022-12-10T05:06:31;1.00;99.90
28835;DHT22;15969;51.536;11.884;2022-12-10T05:08:57;1.00;99.90
28835;DHT22;15969;51.536;11.884;2022-12-10T05:11:26;0.90;99.90
28835;DHT22;15969;51.536;11.884;2022-12-10T05:13:54;0.90;99.90
28835;DHT22;15969;51.536;11.884;2022-12-10T05:16:22;0.90;99.90
28835;DHT22;15969;51.536;11.884;2022-12-10T05:18:50;0.80;99.90
28835;DHT22;15969;51.536;11.884;2022-12-10T05:21:18;0.80;99.90
28835;DHT22;15969;51.536;11.884;2022-12-10T05:23:47;0.70;99.90
28835;DHT22;15969;51.536;11.884;2022-12-10T05:26:16;0.80;99.90
28835;DHT22;15969;51.536;11.884;2022-12-10T05:28:55;0.80;99.90
28835;DHT22;15969;51.536;11.884;2022-12-10T05:31:22;0.80;99.90
28835;DHT22;15969;51.536;11.884;2022-12-10T05:33:49;0.70;99.90
28835;DHT22;15969;51.536;11.884;2022-12-10T05:36:19;0.70;99.90
28835;DHT22;15969;51.536;11.884;2022-12-10T05:38:47;0.80;99.90
28835;DHT22;15969;51.536;11.884;2022-12-10T05:41:18;0.70;99.90
28835;DHT22;15969;51.536;11.884;2022-12-10T05:43:46;0.80;99.90
28835;DHT22;15969;51.536;11.884;2022-12-10T05:46:18;0.70;99.90
28835;DHT22;15969;51.536;11.884;2022-12-10T05:48:45;0.70;99.90
28835;DHT22;15969;51.536;11.884;2022-12-10T05:51:13;0.80;99.90
28835;DHT22;15969;51.536;11.884;2022-12-10T05:53:41;0.80;99.90
28835;DHT22;15969;51.536;11.884;2022-12-10T05:56:13;0.70;99.90
28835;DHT22;15969;51.536;11.884;2022-12-10T05:58:42;0.80;99.90
28835;DHT22;15969;51.536;11.884;2022-12-10T06:01:11;0.80;99.90
28835;DHT22;15969;51.536;11.884;2022-12-10T06:03:41;0.80;99.90
28835;DHT22;15969;51.536;11.884;2022-12-10T06:06:07;0.80;99.90
28835;DHT22;15969;51.536;11.884;2022-12-10T06:08:33;0.70;99.90
28835;DHT22;15969;51.536;11.884;2022-12-10T06:11:07;0.70;99.90
28835;DHT22;15969;51.536;11.884;2022-12-10T06:13:35;0.80;99.90
28835;DHT22;15969;51.536;11.884;2022-12-10T06:16:09;0.70;99.90
28835;DHT22;15969;51.536;11.884;2022-12-10T06:18:37;0.60;99.90
28835;DHT22;15969;51.536;11.884;2022-12-10T06:21:12;0.60;99.90
28835;DHT22;15969;51.536;11.884;2022-12-10T06:23:40;0.70;99.90
28835;DHT22;15969;51.536;11.884;2022-12-10T06:26:08;0.80;99.90
28835;DHT22;15969;51.536;11.884;2022-12-10T06:28:38;0.80;99.90
28835;DHT22;15969;51.536;11.884;2022-12-10T06:31:05;0.80;99.90
28835;DHT22;15969;51.536;11.884;2022-12-10T06:33:31;0.80;99.90
28835;DHT22;15969;51.536;11.884;2022-12-10T06:35:57;0.80;99.90
28835;DHT22;15969;51.536;11.884;2022-12-10T06:38:23;1.00;99.90
28835;DHT22;15969;51.536;11.884;2022-12-10T06:40:48;1.00;99.90
28835;DHT22;15969;51.536;11.884;2022-12-10T06:43:14;0.90;99.90
28835;DHT22;15969;51.536;11.884;2022-12-10T06:45:41;0.80;99.90
28835;DHT22;15969;51.536;11.884;2022-12-10T06:48:08;1.00;99.90
28835;DHT22;15969;51.536;11.884;2022-12-10T06:50:34;1.10;99.90
28835;DHT22;15969;51.536;11.884;2022-12-10T06:53:00;1.00;99.90
28835;DHT22;15969;51.536;11.884;2022-12-10T06:55:26;0.90;99.90
28835;DHT22;15969;51.536;11.884;2022-12-10T06:57:52;1.00;99.90
28835;DHT22;15969;51.536;11.884;2022-12-10T07:00:19;1.00;99.90
28835;DHT22;15969;51.536;11.884;2022-12-10T07:02:45;0.90;99.90
28835;DHT22;15969;51.536;11.884;2022-12-10T07:05:11;0.80;99.90
28835;DHT22;15969;51.536;11.884;2022-12-10T07:07:37;0.70;99.90
28835;DHT22;15969;51.536;11.884;2022-12-10T07:10:03;0.90;99.90
28835;DHT22;15969;51.536;11.884;2022-12-10T07:12:29;0.80;99.90
28835;DHT22;15969;51.536;11.884;2022-12-10T07:14:55;0.80;99.90
28835;DHT22;15969;51.536;11.884;2022-12-10T07:17:21;1.00;99.90
28835;DHT22;15969;51.536;11.884;2022-12-10T07:19:47;1.00;99.90
28835;DHT22;15969;51.536;11.884;2022-12-10T07:22:12;1.20;99.90
28835;DHT22;15969;51.536;11.884;2022-12-10T07:24:38;1.30;99.90
28835;DHT22;15969;51.536;11.884;2022-12-10T07:27:05;1.30;99.90
28835;DHT22;15969;51.536;11.884;2022-12-10T07:29:31;1.30;99.90
28835;DHT22;15969;51.536;11.884;2022-12-10T07:31:57;1.40;99.90
28835;DHT22;15969;51.536;11.884;2022-12-10T07:34:23;1.40;99.90
28835;DHT22;15969;51.536;11.884;2022-12-10T07:36:49;1.50;99.90
28835;DHT22;15969;51.536;11.884;2022-12-10T07:39:14;1.50;99.90
28835;DHT22;15969;51.536;11.884;2022-12-10T07:41:50;1.50;99.90
28835;DHT22;15969;51.536;11.884;2022-12-10T07:44:19;1.60;99.90
28835;DHT22;15969;51.536;11.884;2022-12-10T07:46:47;1.60;99.90
28835;DHT22;15969;51.536;11.884;2022-12-10T07:49:14;1.60;99.90
28835;DHT22;15969;51.536;11.884;2022-12-10T07:51:42;1.70;99.90
28835;DHT22;15969;51.536;11.884;2022-12-10T07:54:09;1.70;99.90
28835;DHT22;15969;51.536;11.884;2022-12-10T07:56:35;1.70;99.90
28835;DHT22;15969;51.536;11.884;2022-12-10T07:59:00;1.80;99.90
28835;DHT22;15969;51.536;11.884;2022-12-10T08:01:26;1.70;99.90
28835;DHT22;15969;51.536;11.884;2022-12-10T08:03:53;1.70;99.90
28835;DHT22;15969;51.536;11.884;2022-12-10T08:06:22;1.80;99.90
28835;DHT22;15969;51.536;11.884;2022-12-10T08:08:49;1.80;99.90
28835;DHT22;15969;51.536;11.884;2022-12-10T08:11:16;1.80;99.90
28835;DHT22;15969;51.536;11.884;2022-12-10T08:13:44;1.90;99.90
28835;DHT22;15969;51.536;11.884;2022-12-10T08:16:16;1.80;99.90
28835;DHT22;15969;51.536;11.884;2022-12-10T08:18:44;1.80;99.90
28835;DHT22;15969;51.536;11.884;2022-12-10T08:21:16;1.80;99.90
28835;DHT22;15969;51.536;11.884;2022-12-10T08:23:43;1.90;99.90
28835;DHT22;15969;51.536;11.884;2022-12-10T08:26:12;1.60;99.90
28835;DHT22;15969;51.536;11.884;2022-12-10T08:28:40;1.30;99.90
28835;DHT22;15969;51.536;11.884;2022-12-10T08:31:13;1.30;99.90
28835;DHT22;15969;51.536;11.884;2022-12-10T08:33:39;1.50;99.90
28835;DHT22;15969;51.536;11.884;2022-12-10T08:36:07;1.60;99.90
28835;DHT22;15969;51.536;11.884;2022-12-10T08:38:34;1.70;99.90
28835;DHT22;15969;51.536;11.884;2022-12-10T08:41:15;1.70;99.90
28835;DHT22;15969;51.536;11.884;2022-12-10T08:43:43;1.80;99.90
28835;DHT22;15969;51.536;11.884;2022-12-10T08:46:10;1.50;99.90
28835;DHT22;15969;51.536;11.884;2022-12-10T08:48:37;1.40;99.90
28835;DHT22;15969;51.536;11.884;2022-12-10T08:51:04;1.40;99.90
28835;DHT22;15969;51.536;11.884;2022-12-10T08:53:31;1.30;99.90
28835;DHT22;15969;51.536;11.884;2022-12-10T08:55:57;1.20;99.90
28835;DHT22;15969;51.536;11.884;2022-12-10T08:58:23;1.40;99.90
28835;DHT22;15969;51.536;11.884;2022-12-10T09:00:49;1.60;99.90
28835;DHT22;15969;51.536;11.884;2022-12-10T09:03:16;1.70;99.90
28835;DHT22;15969;51.536;11.884;2022-12-10T09:05:42;1.80;99.90
28835;DHT22;15969;51.536;11.884;2022-12-10T09:08:08;1.90;99.90
28835;DHT22;15969;51.536;11.884;2022-12-10T09:10:38;1.90;99.90
28835;DHT22;15969;51.536;11.884;2022-12-10T09:13:04;1.80;99.90
28835;DHT22;15969;51.536;11.884;2022-12-10T09:15:30;1.80;99.90
28835;DHT22;15969;51.536;11.884;2022-12-10T09:17:56;1.70;99.90
28835;DHT22;15969;51.536;11.884;2022-12-10T09:20:22;1.90;99.90
28835;DHT22;15969;51.536;11.884;2022-12-10T09:22:48;2.00;99.90
28835;DHT22;15969;51.536;11.884;2022-12-10T09:25:13;1.90;99.90
28835;DHT22;15969;51.536;11.884;2022-12-10T09:27:42;1.60;99.90
28835;DHT22;15969;51.536;11.884;2022-12-10T09:30:09;1.40;99.90
28835;DHT22;15969;51.536;11.884;2022-12-10T09:32:36;1.70;99.90
28835;DHT22;15969;51.536;11.884;2022-12-10T09:35:02;1.90;99.90
28835;DHT22;15969;51.536;11.884;2022-12-10T09:37:28;2.00;99.90
28835;DHT22;15969;51.536;11.884;2022-12-10T09:39:54;2.10;99.90
28835;DHT22;15969;51.536;11.884;2022-12-10T09:45:16;2.30;99.90
28835;DHT22;15969;51.536;11.884;2022-12-10T09:48:22;2.20;99.90
28835;DHT22;15969;51.536;11.884;2022-12-10T09:51:12;2.20;99.90
28835;DHT22;15969;51.536;11.884;2022-12-10T09:53:43;2.30;99.90
28835;DHT22;15969;51.536;11.884;2022-12-10T09:56:21;2.30;99.90
28835;DHT22;15969;51.536;11.884;2022-12-10T09:58:48;2.30;99.90
28835;DHT22;15969;51.536;11.884;2022-12-10T10:01:16;2.30;99.90
28835;DHT22;15969;51.536;11.884;2022-12-10T10:03:43;2.30;99.90
28835;DHT22;15969;51.536;11.884;2022-12-10T10:06:12;2.40;99.90
28835;DHT22;15969;51.536;11.884;2022-12-10T10:08:59;2.40;99.90
28835;DHT22;15969;51.536;11.884;2022-12-10T10:11:32;2.40;99.90
28835;DHT22;15969;51.536;11.884;2022-12-10T10:14:04;2.40;99.90
28835;DHT22;15969;51.536;11.884;2022-12-10T10:16:45;2.40;99.90
28835;DHT22;15969;51.536;11.884;2022-12-10T10:19:17;2.40;99.90
28835;DHT22;15969;51.536;11.884;2022-12-10T10:21:47;2.40;99.90
28835;DHT22;15969;51.536;11.884;2022-12-10T10:24:16;2.40;99.90
28835;DHT22;15969;51.536;11.884;2022-12-10T10:26:44;2.50;99.90
28835;DHT22;15969;51.536;11.884;2022-12-10T10:29:18;2.40;99.90
28835;DHT22;15969;51.536;11.884;2022-12-10T10:31:46;2.40;99.90
28835;DHT22;15969;51.536;11.884;2022-12-10T10:34:22;2.40;99.90
28835;DHT22;15969;51.536;11.884;2022-12-10T10:36:56;2.50;99.90
28835;DHT22;15969;51.536;11.884;2022-12-10T10:39:26;2.50;99.90
28835;DHT22;15969;51.536;11.884;2022-12-10T10:41:54;2.40;99.90
28835;DHT22;15969;51.536;11.884;2022-12-10T10:44:26;2.50;99.90
28835;DHT22;15969;51.536;11.884;2022-12-10T10:46:54;2.50;99.90
28835;DHT22;15969;51.536;11.884;2022-12-10T10:52:00;2.50;99.90
28835;DHT22;15969;51.536;11.884;2022-12-10T10:54:42;2.60;99.90
28835;DHT22;15969;51.536;11.884;2022-12-10T10:57:29;2.60;99.90
28835;DHT22;15969;51.536;11.884;2022-12-10T11:00:16;2.60;99.90
28835;DHT22;15969;51.536;11.884;2022-12-10T11:02:43;2.50;99.90
28835;DHT22;15969;51.536;11.884;2022-12-10T11:05:24;2.30;99.90
28835;DHT22;15969;51.536;11.884;2022-12-10T11:10:29;2.40;99.90
28835;DHT22;15969;51.536;11.884;2022-12-10T11:12:57;2.50;99.90
28835;DHT22;15969;51.536;11.884;2022-12-10T11:15:31;2.60;99.90
28835;DHT22;15969;51.536;11.884;2022-12-10T11:18:03;2.60;99.90
28835;DHT22;15969;51.536;11.884;2022-12-10T11:20:35;2.70;99.90
28835;DHT22;15969;51.536;11.884;2022-12-10T11:23:08;2.70;99.90
28835;DHT22;15969;51.536;11.884;2022-12-10T11:25:51;2.70;99.90
28835;DHT22;15969;51.536;11.884;2022-12-10T11:28:53;2.40;99.90
28835;DHT22;15969;51.536;11.884;2022-12-10T11:37:23;2.30;99.90
28835;DHT22;15969;51.536;11.884;2022-12-10T11:40:32;2.50;99.90
28835;DHT22;15969;51.536;11.884;2022-12-10T11:51:54;2.30;99.90
28835;DHT22;15969;51.536;11.884;2022-12-10T11:57:52;2.60;99.90
28835;DHT22;15969;51.536;11.884;2022-12-10T12:00:29;2.60;99.90
28835;DHT22;15969;51.536;11.884;2022-12-10T12:03:27;2.70;99.90
28835;DHT22;15969;51.536;11.884;2022-12-10T12:12:07;2.90;99.90
28835;DHT22;15969;51.536;11.884;2022-12-10T12:14:46;3.00;99.90
28835;DHT22;15969;51.536;11.884;2022-12-10T12:17:19;2.90;99.90
28835;DHT22;15969;51.536;11.884;2022-12-10T12:19:52;2.80;99.90
28835;DHT22;15969;51.536;11.884;2022-12-10T12:22:30;2.80;99.90
28835;DHT22;15969;51.536;11.884;2022-12-10T12:28:23;3.00;99.90
28835;DHT22;15969;51.536;11.884;2022-12-10T12:31:06;3.10;99.90
28835;DHT22;15969;51.536;11.884;2022-12-10T12:33:49;3.10;99.90
28835;DHT22;15969;51.536;11.884;2022-12-10T12:36:25;3.00;99.90
28835;DHT22;15969;51.536;11.884;2022-12-10T12:39:03;3.10;99.90
28835;DHT22;15969;51.536;11.884;2022-12-10T12:49:56;3.00;99.90
28835;DHT22;15969;51.536;11.884;2022-12-10T12:55:21;2.90;99.90
28835;DHT22;15969;51.536;11.884;2022-12-10T12:58:13;2.80;99.90
28835;DHT22;15969;51.536;11.884;2022-12-10T13:00:52;3.00;99.90
28835;DHT22;15969;51.536;11.884;2022-12-10T13:03:36;3.00;99.90
28835;DHT22;15969;51.536;11.884;2022-12-10T13:06:26;3.00;99.90
28835;DHT22;15969;51.536;11.884;2022-12-10T13:11:42;3.00;99.90
28835;DHT22;15969;51.536;11.884;2022-12-10T13:14:32;3.00;99.90
28835;DHT22;15969;51.536;11.884;2022-12-10T13:17:32;2.90;99.90
28835;DHT22;15969;51.536;11.884;2022-12-10T13:23:04;2.90;99.90
28835;DHT22;15969;51.536;11.884;2022-12-10T13:28:40;2.80;99.90
28835;DHT22;15969;51.536;11.884;2022-12-10T13:41:31;2.70;99.90
28835;DHT22;15969;51.536;11.884;2022-12-10T13:44:47;2.60;99.90
28835;DHT22;15969;51.536;11.884;2022-12-10T13:50:05;2.70;99.90
28835;DHT22;15969;51.536;11.884;2022-12-10T13:55:46;2.60;99.90
28835;DHT22;15969;51.536;11.884;2022-12-10T13:59:34;2.40;99.90
28835;DHT22;15969;51.536;11.884;2022-12-10T14:05:03;2.00;99.90
28835;DHT22;15969;51.536;11.884;2022-12-10T14:07:43;2.00;99.90
28835;DHT22;15969;51.536;11.884;2022-12-10T14:10:15;2.20;99.90
28835;DHT22;15969;51.536;11.884;2022-12-10T14:12:43;2.20;99.90
28835;DHT22;15969;51.536;11.884;2022-12-10T14:15:18;2.30;99.90
28835;DHT22;15969;51.536;11.884;2022-12-10T14:17:56;2.30;99.90
28835;DHT22;15969;51.536;11.884;2022-12-10T14:20:31;2.30;99.90
28835;DHT22;15969;51.536;11.884;2022-12-10T14:23:03;2.40;99.90
28835;DHT22;15969;51.536;11.884;2022-12-10T14:25:48;2.40;99.90
28835;DHT22;15969;51.536;11.884;2022-12-10T14:28:17;2.40;99.90
28835;DHT22;15969;51.536;11.884;2022-12-10T14:30:48;2.30;99.90
28835;DHT22;15969;51.536;11.884;2022-12-10T14:33:22;2.40;99.90
28835;DHT22;15969;51.536;11.884;2022-12-10T14:35:50;2.40;99.90
28835;DHT22;15969;51.536;11.884;2022-12-10T14:38:24;2.40;99.90
28835;DHT22;15969;51.536;11.884;2022-12-10T14:40:53;2.30;99.90
28835;DHT22;15969;51.536;11.884;2022-12-10T14:43:34;2.30;99.90
28835;DHT22;15969;51.536;11.884;2022-12-10T14:46:03;2.30;99.90
28835;DHT22;15969;51.536;11.884;2022-12-10T14:48:30;2.30;99.90
28835;DHT22;15969;51.536;11.884;2022-12-10T14:51:03;2.30;99.90
28835;DHT22;15969;51.536;11.884;2022-12-10T14:53:31;2.20;99.90
28835;DHT22;15969;51.536;11.884;2022-12-10T14:56:01;2.20;99.90
28835;DHT22;15969;51.536;11.884;2022-12-10T14:58:53;2.20;99.90
28835;DHT22;15969;51.536;11.884;2022-12-10T15:01:29;2.20;99.90
28835;DHT22;15969;51.536;11.884;2022-12-10T15:03:59;2.20;99.90
28835;DHT22;15969;51.536;11.884;2022-12-10T15:06:27;2.20;99.90
28835;DHT22;15969;51.536;11.884;2022-12-10T15:08:55;2.10;99.90
28835;DHT22;15969;51.536;11.884;2022-12-10T15:11:24;2.20;99.90
28835;DHT22;15969;51.536;11.884;2022-12-10T15:13:54;2.10;99.90
28835;DHT22;15969;51.536;11.884;2022-12-10T15:16:41;2.10;99.90
28835;DHT22;15969;51.536;11.884;2022-12-10T15:19:25;2.10;99.90
28835;DHT22;15969;51.536;11.884;2022-12-10T15:22:20;2.20;99.90
28835;DHT22;15969;51.536;11.884;2022-12-10T15:24:48;2.20;99.90
28835;DHT22;15969;51.536;11.884;2022-12-10T15:27:25;2.20;99.90
28835;DHT22;15969;51.536;11.884;2022-12-10T15:29:51;2.10;99.90
28835;DHT22;15969;51.536;11.884;2022-12-10T15:32:24;2.20;99.90
28835;DHT22;15969;51.536;11.884;2022-12-10T15:34:58;2.10;99.90
28835;DHT22;15969;51.536;11.884;2022-12-10T15:37:38;2.10;99.90
28835;DHT22;15969;51.536;11.884;2022-12-10T15:40:22;2.10;99.90
28835;DHT22;15969;51.536;11.884;2022-12-10T15:42:56;2.10;99.90
28835;DHT22;15969;51.536;11.884;2022-12-10T15:45:39;2.10;99.90
28835;DHT22;15969;51.536;11.884;2022-12-10T15:48:09;2.10;99.90
28835;DHT22;15969;51.536;11.884;2022-12-10T15:50:37;2.00;99.90
28835;DHT22;15969;51.536;11.884;2022-12-10T15:53:03;2.00;99.90
28835;DHT22;15969;51.536;11.884;2022-12-10T15:55:29;2.10;99.90
28835;DHT22;15969;51.536;11.884;2022-12-10T15:57:55;2.00;99.90
28835;DHT22;15969;51.536;11.884;2022-12-10T16:00:23;2.00;99.90
28835;DHT22;15969;51.536;11.884;2022-12-10T16:02:54;2.00;99.90
28835;DHT22;15969;51.536;11.884;2022-12-10T16:05:34;2.00;99.90
28835;DHT22;15969;51.536;11.884;2022-12-10T16:08:10;2.00;99.90
28835;DHT22;15969;51.536;11.884;2022-12-10T16:10:49;2.00;99.90
28835;DHT22;15969;51.536;11.884;2022-12-10T16:13:23;2.00;99.90
28835;DHT22;15969;51.536;11.884;2022-12-10T16:16:03;2.00;99.90
28835;DHT22;15969;51.536;11.884;2022-12-10T16:18:30;2.00;99.90
28835;DHT22;15969;51.536;11.884;2022-12-10T16:20:55;2.00;99.90
28835;DHT22;15969;51.536;11.884;2022-12-10T16:23:21;1.90;99.90
28835;DHT22;15969;51.536;11.884;2022-12-10T16:25:47;1.90;99.90
28835;DHT22;15969;51.536;11.884;2022-12-10T16:28:18;1.90;99.90
28835;DHT22;15969;51.536;11.884;2022-12-10T16:30:50;1.90;99.90
28835;DHT22;15969;51.536;11.884;2022-12-10T16:33:18;1.90;99.90
28835;DHT22;15969;51.536;11.884;2022-12-10T16:35:46;1.90;99.90
28835;DHT22;15969;51.536;11.884;2022-12-10T16:38:12;1.90;99.90
28835;DHT22;15969;51.536;11.884;2022-12-10T16:40:39;1.90;99.90
28835;DHT22;15969;51.536;11.884;2022-12-10T16:43:14;1.90;99.90
28835;DHT22;15969;51.536;11.884;2022-12-10T16:45:41;1.90;99.90
28835;DHT22;15969;51.536;11.884;2022-12-10T16:48:08;1.90;99.90
28835;DHT22;15969;51.536;11.884;2022-12-10T16:50:34;1.90;99.90
28835;DHT22;15969;51.536;11.884;2022-12-10T16:53:09;1.90;99.90
28835;DHT22;15969;51.536;11.884;2022-12-10T16:55:39;1.90;99.90
28835;DHT22;15969;51.536;11.884;2022-12-10T16:58:09;1.90;99.90
28835;DHT22;15969;51.536;11.884;2022-12-10T17:00:35;1.80;99.90
28835;DHT22;15969;51.536;11.884;2022-12-10T17:03:01;1.80;99.90
28835;DHT22;15969;51.536;11.884;2022-12-10T17:05:35;1.70;99.90
28835;DHT22;15969;51.536;11.884;2022-12-10T17:08:05;1.80;99.90
28835;DHT22;15969;51.536;11.884;2022-12-10T17:10:30;1.80;99.90
28835;DHT22;15969;51.536;11.884;2022-12-10T17:13:15;1.80;99.90
28835;DHT22;15969;51.536;11.884;2022-12-10T17:15:42;1.80;99.90
28835;DHT22;15969;51.536;11.884;2022-12-10T17:18:15;1.70;99.90
28835;DHT22;15969;51.536;11.884;2022-12-10T17:20:43;1.60;99.90
28835;DHT22;15969;51.536;11.884;2022-12-10T17:23:10;1.60;99.90
28835;DHT22;15969;51.536;11.884;2022-12-10T17:25:37;1.60;99.90
28835;DHT22;15969;51.536;11.884;2022-12-10T17:28:03;1.60;99.90